UPCS205 UAAA-ZF3C
Flight info
| Callsign | UPCS205 |
|---|---|
| Flight time | N/A |
| Altitude | 4000 |
| Route | 4319N07654E/MIKE 4318N07647E/TEC 4312N07636E/KASKELEN |
| Aircraft | C414/L-S/N |
Departure
| Time | 2026-04-29 16:48 |
|---|---|
| Airport | Almaty International Airport (UAAA) |
Arrival
| Time | N/A |
|---|---|
| Airport | ZF3C |
| Time | Latitude | Longitude | Altitude | Speed | Heading |
|---|---|---|---|---|---|
| 2026-04-29 16:40 | 43.34297 | 77.01399 | 2219 ft | 0 kts | 246° |
| 2026-04-29 16:43 | 43.34290 | 77.01379 | 2220 ft | 11 kts | 227° |
| 2026-04-29 16:43 | 43.34245 | 77.01439 | 2221 ft | 9 kts | 65° |
| 2026-04-29 16:44 | 43.34280 | 77.01545 | 2220 ft | 15 kts | 66° |
| 2026-04-29 16:44 | 43.34319 | 77.01631 | 2221 ft | 9 kts | 349° |
| 2026-04-29 16:44 | 43.34418 | 77.01573 | 2221 ft | 19 kts | 336° |
| 2026-04-29 16:44 | 43.34521 | 77.01510 | 2219 ft | 17 kts | 336° |
| 2026-04-29 16:45 | 43.34644 | 77.01460 | 2219 ft | 17 kts | 339° |
| 2026-04-29 16:45 | 43.34748 | 77.01459 | 2220 ft | 15 kts | 16° |
| 2026-04-29 16:45 | 43.34817 | 77.01530 | 2219 ft | 15 kts | 95° |
| 2026-04-29 16:45 | 43.34810 | 77.01675 | 2220 ft | 14 kts | 94° |
| 2026-04-29 16:46 | 43.34802 | 77.01834 | 2220 ft | 16 kts | 94° |
| 2026-04-29 16:46 | 43.34793 | 77.02008 | 2221 ft | 11 kts | 94° |
| 2026-04-29 16:46 | 43.34793 | 77.02013 | 2221 ft | 0 kts | 94° |
| 2026-04-29 16:46 | 43.34788 | 77.02106 | 2221 ft | 24 kts | 94° |
| 2026-04-29 16:47 | 43.34774 | 77.02382 | 2226 ft | 32 kts | 93° |
| 2026-04-29 16:47 | 43.34765 | 77.02562 | 2229 ft | 21 kts | 83° |
| 2026-04-29 16:47 | 43.34780 | 77.02925 | 2226 ft | 32 kts | 88° |
| 2026-04-29 16:47 | 43.34735 | 77.02973 | 2226 ft | 8 kts | 236° |
| 2026-04-29 16:48 | 43.34604 | 77.02705 | 2226 ft | 65 kts | 236° |
| 2026-04-29 16:48 | 43.34267 | 77.02003 | 2301 ft | 105 kts | 239° |
| 2026-04-29 16:48 | 43.33906 | 77.01068 | 2607 ft | 116 kts | 246° |
| 2026-04-29 16:48 | 43.33555 | 77.00021 | 2954 ft | 125 kts | 246° |
| 2026-04-29 16:49 | 43.33328 | 76.98831 | 3292 ft | 134 kts | 266° |
| 2026-04-29 16:49 | 43.33352 | 76.97540 | 3681 ft | 135 kts | 270° |
| 2026-04-29 16:49 | 43.33120 | 76.96292 | 4041 ft | 142 kts | 251° |
| 2026-04-29 16:49 | 43.32835 | 76.94848 | 4073 ft | 169 kts | 255° |
| 2026-04-29 16:50 | 43.32497 | 76.93296 | 4166 ft | 169 kts | 251° |
| 2026-04-29 16:50 | 43.32116 | 76.91777 | 4266 ft | 169 kts | 250° |
| 2026-04-29 16:50 | 43.31734 | 76.90255 | 4324 ft | 169 kts | 252° |
| 2026-04-29 16:50 | 43.31485 | 76.88681 | 4421 ft | 169 kts | 259° |
| 2026-04-29 16:51 | 43.31256 | 76.87100 | 4498 ft | 170 kts | 258° |
| 2026-04-29 16:51 | 43.31024 | 76.85513 | 4589 ft | 170 kts | 258° |
| 2026-04-29 16:51 | 43.30794 | 76.83918 | 4667 ft | 170 kts | 258° |
| 2026-04-29 16:51 | 43.30584 | 76.82435 | 4761 ft | 171 kts | 259° |
| 2026-04-29 16:52 | 43.30357 | 76.80831 | 4846 ft | 168 kts | 258° |
| 2026-04-29 16:52 | 43.30130 | 76.79253 | 4919 ft | 169 kts | 258° |
| 2026-04-29 16:52 | 43.29699 | 76.77769 | 4960 ft | 169 kts | 232° |
| 2026-04-29 16:52 | 43.28987 | 76.76498 | 5029 ft | 169 kts | 232° |
| 2026-04-29 16:53 | 43.28292 | 76.75202 | 5083 ft | 169 kts | 232° |
| 2026-04-29 16:53 | 43.27590 | 76.73906 | 5148 ft | 170 kts | 232° |
| 2026-04-29 16:53 | 43.26883 | 76.72610 | 5215 ft | 170 kts | 232° |
| 2026-04-29 16:53 | 43.26176 | 76.71312 | 5273 ft | 170 kts | 232° |
| 2026-04-29 16:54 | 43.25469 | 76.70016 | 5326 ft | 170 kts | 232° |
| 2026-04-29 16:54 | 43.24762 | 76.68720 | 5395 ft | 169 kts | 232° |
| 2026-04-29 16:54 | 43.24063 | 76.67429 | 5319 ft | 170 kts | 232° |
| 2026-04-29 16:54 | 43.23330 | 76.66128 | 5037 ft | 172 kts | 228° |
| 2026-04-29 16:55 | 43.22540 | 76.64909 | 4799 ft | 171 kts | 225° |
| 2026-04-29 16:55 | 43.21695 | 76.63740 | 4451 ft | 175 kts | 223° |
| 2026-04-29 16:55 | 43.20862 | 76.62517 | 4146 ft | 175 kts | 227° |
| 2026-04-29 16:55 | 43.20147 | 76.61175 | 3802 ft | 177 kts | 237° |
| 2026-04-29 16:56 | 43.19592 | 76.59705 | 3552 ft | 164 kts | 249° |
| 2026-04-29 16:56 | 43.19291 | 76.58279 | 3283 ft | 144 kts | 252° |
| 2026-04-29 16:56 | 43.19063 | 76.57180 | 3106 ft | 104 kts | 250° |
| 2026-04-29 16:56 | 43.18876 | 76.56271 | 2962 ft | 91 kts | 250° |
| 2026-04-29 16:57 | 43.18771 | 76.55730 | 2956 ft | 12 kts | 245° |
| 2026-04-29 16:57 | 43.18693 | 76.55733 | 2962 ft | 5 kts | 137° |
| 2026-04-29 16:57 | 43.18700 | 76.55747 | 2961 ft | 0 kts | 339° |